Time;durP1;ratioP1;P1;durP2;ratioP2;P2;SDS_P1;SDS_P2;PMS_P1;PMS_P2;Temp;Humidity;BMP_temperature;BMP_pressure;BME280_temperature;BME280_humidity;BME280_pressure;Samples;Min_cycle;Max_cycle;Signal;HPM_P1;HPM_P2
2023/01/26 00:00:14;;;;;;;14.48;3.65;;;5.30;99.90;;;;;;5032831;28;20508;-50
2023/01/26 00:02:40;;;;;;;17.90;5.03;;;5.30;99.90;;;;;;5034324;28;20041;-51
2023/01/26 00:05:07;;;;;;;13.48;2.90;;;5.30;99.90;;;;;;5034221;28;20381;-51
2023/01/26 00:07:34;;;;;;;11.60;2.80;;;5.20;99.90;;;;;;5034162;28;20473;-54
2023/01/26 00:10:01;;;;;;;14.95;2.67;;;5.20;99.90;;;;;;5034454;28;20045;-50
2023/01/26 00:12:27;;;;;;;11.18;2.83;;;5.20;99.90;;;;;;5034258;28;20087;-51
2023/01/26 00:14:54;;;;;;;15.25;3.45;;;5.10;99.90;;;;;;5033990;28;20065;-52
2023/01/26 00:17:27;;;;;;;11.77;2.90;;;5.10;99.90;;;;;;5034161;28;20373;-54
2023/01/26 00:19:54;;;;;;;14.45;3.03;;;5.10;99.90;;;;;;5034394;28;20038;-50
2023/01/26 00:22:20;;;;;;;11.38;2.75;;;5.10;99.90;;;;;;5034539;28;20049;-50
2023/01/26 00:24:47;;;;;;;15.18;3.10;;;5.10;99.90;;;;;;5033815;28;20049;-51
2023/01/26 00:27:14;;;;;;;18.33;2.83;;;5.10;99.90;;;;;;5033859;28;20095;-51
2023/01/26 00:29:41;;;;;;;18.10;3.33;;;5.10;99.90;;;;;;5034062;28;20101;-54
2023/01/26 00:32:07;;;;;;;14.02;2.95;;;5.20;99.90;;;;;;5032701;28;20451;-55
2023/01/26 00:34:34;;;;;;;14.23;3.05;;;5.10;99.90;;;;;;5032726;28;20041;-53
2023/01/26 00:37:01;;;;;;;13.00;2.50;;;5.10;99.90;;;;;;5033846;28;20041;-56
2023/01/26 00:39:28;;;;;;;14.10;2.75;;;5.10;99.90;;;;;;5032869;28;20053;-52
2023/01/26 00:42:10;;;;;;;11.25;3.20;;;5.00;99.90;;;;;;5033054;28;20104;-54
2023/01/26 00:44:37;;;;;;;13.45;2.50;;;5.00;99.90;;;;;;5032428;28;20045;-52
2023/01/26 00:47:04;;;;;;;14.23;2.67;;;4.90;99.90;;;;;;5033634;28;20068;-55
2023/01/26 00:49:32;;;;;;;13.88;2.97;;;4.90;99.90;;;;;;5033960;28;20037;-53
2023/01/26 00:51:58;;;;;;;12.00;2.72;;;4.90;99.90;;;;;;5033742;28;20065;-52
2023/01/26 00:54:25;;;;;;;14.02;3.13;;;5.00;99.90;;;;;;5033509;28;20042;-55
2023/01/26 00:56:52;;;;;;;12.35;2.90;;;5.00;99.90;;;;;;5032450;28;20551;-54
2023/01/26 00:59:19;;;;;;;10.63;2.90;;;4.90;99.90;;;;;;5032186;28;20048;-51
2023/01/26 01:01:45;;;;;;;13.77;2.60;;;5.00;99.90;;;;;;5033772;28;20095;-52
2023/01/26 01:04:12;;;;;;;10.63;2.95;;;4.90;99.90;;;;;;5033810;28;20378;-53
2023/01/26 01:06:39;;;;;;;15.65;3.20;;;4.90;99.90;;;;;;5033337;28;20119;-50
2023/01/26 01:09:06;;;;;;;11.00;3.20;;;4.80;99.90;;;;;;5034002;28;20381;-53
2023/01/26 01:11:32;;;;;;;14.52;3.47;;;4.90;99.90;;;;;;5036473;28;20481;-56
2023/01/26 01:13:59;;;;;;;17.90;3.42;;;4.80;99.90;;;;;;5037425;28;20077;-59
2023/01/26 01:16:27;;;;;;;13.52;3.70;;;4.70;99.90;;;;;;5037333;28;20064;-56
2023/01/26 01:18:55;;;;;;;14.73;3.25;;;4.70;99.90;;;;;;5046031;28;20037;-52
2023/01/26 01:21:22;;;;;;;15.90;4.05;;;4.70;99.90;;;;;;5045782;28;20480;-55
2023/01/26 01:23:49;;;;;;;10.30;3.70;;;4.60;99.90;;;;;;5055718;28;20524;-55
2023/01/26 01:26:16;;;;;;;14.35;4.22;;;4.60;99.90;;;;;;5056705;28;20061;-56
2023/01/26 01:28:43;;;;;;;12.13;3.15;;;4.60;99.90;;;;;;5056987;28;20053;-56
2023/01/26 01:31:10;;;;;;;15.57;3.95;;;4.60;99.90;;;;;;5056082;28;20048;-55
2023/01/26 01:33:38;;;;;;;13.38;3.80;;;4.60;99.90;;;;;;5056943;28;20056;-53
2023/01/26 01:36:04;;;;;;;15.65;4.25;;;4.60;99.90;;;;;;5039474;28;20062;-55
2023/01/26 01:38:31;;;;;;;13.55;4.00;;;4.60;99.90;;;;;;5065242;28;20387;-55
2023/01/26 01:40:58;;;;;;;17.55;4.03;;;4.50;99.90;;;;;;5059188;28;20084;-53
2023/01/26 01:43:25;;;;;;;15.23;4.18;;;4.50;99.90;;;;;;5055712;28;20068;-56
2023/01/26 01:45:52;;;;;;;10.32;3.85;;;4.50;99.90;;;;;;5056228;28;20430;-55
2023/01/26 01:48:19;;;;;;;19.63;4.53;;;4.50;99.90;;;;;;5056489;28;20125;-54
2023/01/26 01:50:47;;;;;;;14.82;4.20;;;4.40;99.90;;;;;;5056774;28;20044;-53
2023/01/26 01:53:13;;;;;;;14.20;4.22;;;4.40;99.90;;;;;;5057081;28;20045;-55
2023/01/26 01:55:40;;;;;;;12.95;4.53;;;4.40;99.90;;;;;;5056668;28;20087;-53
2023/01/26 01:58:07;;;;;;;12.30;4.20;;;4.40;99.90;;;;;;5055676;28;20037;-54
2023/01/26 02:00:34;;;;;;;13.20;4.35;;;4.40;99.90;;;;;;5054933;28;20048;-54
2023/01/26 02:03:10;;;;;;;13.20;4.60;;;4.30;99.90;;;;;;5056197;28;20052;-51
2023/01/26 02:05:38;;;;;;;16.30;4.85;;;4.30;99.90;;;;;;5055093;28;20045;-49
2023/01/26 02:08:08;;;;;;;10.85;4.40;;;4.30;99.90;;;;;;5054972;28;20049;-50
2023/01/26 02:10:35;;;;;;;14.30;5.25;;;4.30;99.90;;;;;;5056049;28;20056;-54
2023/01/26 02:13:03;;;;;;;13.80;4.60;;;4.30;99.90;;;;;;5056013;28;20048;-50
2023/01/26 02:15:31;;;;;;;14.45;5.18;;;4.30;99.90;;;;;;5055627;28;20504;-52
2023/01/26 02:17:59;;;;;;;14.40;4.50;;;4.30;99.90;;;;;;5054777;28;20131;-48
2023/01/26 02:20:27;;;;;;;21.52;5.18;;;4.30;99.90;;;;;;5054629;28;20132;-54
2023/01/26 02:22:54;;;;;;;13.18;5.18;;;4.30;99.90;;;;;;5054737;28;20049;-52
2023/01/26 02:25:21;;;;;;;12.05;4.40;;;4.30;99.90;;;;;;5054569;28;20049;-49
2023/01/26 02:27:48;;;;;;;13.18;4.78;;;4.30;99.90;;;;;;5055814;28;20461;-55
2023/01/26 02:30:14;;;;;;;16.23;5.28;;;4.30;99.90;;;;;;5054306;28;20052;-51
2023/01/26 02:32:42;;;;;;;11.80;4.85;;;4.30;99.90;;;;;;5054695;28;20072;-51
2023/01/26 02:35:09;;;;;;;15.50;5.15;;;4.30;99.90;;;;;;5054428;28;20072;-53
2023/01/26 02:37:36;;;;;;;16.17;5.45;;;4.30;99.90;;;;;;5054353;28;20065;-53
2023/01/26 02:40:03;;;;;;;17.10;5.47;;;4.20;99.90;;;;;;5038328;28;20045;-52
2023/01/26 02:42:40;;;;;;;17.23;6.05;;;4.30;99.90;;;;;;5054790;28;20574;-54
2023/01/26 02:45:07;;;;;;;13.55;5.10;;;4.20;99.90;;;;;;5054900;28;20045;-51
2023/01/26 02:47:34;;;;;;;17.00;5.85;;;4.30;99.90;;;;;;5054167;28;20075;-54
2023/01/26 02:50:03;;;;;;;18.35;6.03;;;4.20;99.90;;;;;;5054259;28;20443;-51
2023/01/26 02:52:30;;;;;;;12.88;5.82;;;4.20;99.90;;;;;;5054389;28;20045;-55
2023/01/26 02:57:51;;;;;;;;;;;4.10;99.90;;;;;;5054848;28;20049;-53
2023/01/26 03:00:18;;;;;;;17.02;6.78;;;4.00;99.90;;;;;;5054610;28;19920;-50
2023/01/26 03:02:47;;;;;;;17.08;6.07;;;4.00;99.90;;;;;;5054370;28;20071;-55
2023/01/26 03:05:13;;;;;;;18.52;6.00;;;3.90;99.90;;;;;;5054148;28;20041;-50
2023/01/26 03:07:40;;;;;;;15.20;5.78;;;3.90;99.90;;;;;;5054193;28;20068;-52
2023/01/26 03:10:07;;;;;;;15.73;6.43;;;3.90;99.90;;;;;;5054056;28;20049;-49
2023/01/26 03:12:35;;;;;;;18.05;6.22;;;3.80;99.90;;;;;;5055044;28;20048;-51
2023/01/26 03:17:47;;;;;;;18.95;5.90;;;3.70;99.90;;;;;;5053676;28;20045;-52
2023/01/26 03:28:32;;;;;;;12.70;5.72;;;3.60;99.90;;;;;;5054201;28;20095;-49
2023/01/26 03:30:59;;;;;;;15.43;6.20;;;3.60;99.90;;;;;;5053679;28;20053;-54
2023/01/26 03:33:29;;;;;;;16.13;6.25;;;3.50;99.90;;;;;;5053350;28;20049;-55
2023/01/26 03:35:56;;;;;;;17.23;6.65;;;3.50;99.90;;;;;;5053519;28;20064;-52
2023/01/26 03:38:23;;;;;;;14.10;6.35;;;3.50;99.90;;;;;;5053239;28;20498;-57
2023/01/26 03:57:27;;;;;;;13.30;6.05;;;3.30;99.90;;;;;;5053217;28;20049;-52
2023/01/26 03:59:54;;;;;;;17.65;5.63;;;3.20;99.90;;;;;;5053459;28;20424;-54
2023/01/26 04:10:43;;;;;;;15.50;5.25;;;3.20;99.90;;;;;;5054357;28;20124;-53
2023/01/26 04:21:34;;;;;;;16.27;5.53;;;3.10;99.90;;;;;;5053319;28;20389;-53
2023/01/26 04:24:12;;;;;;;16.17;6.07;;;3.10;99.90;;;;;;5053202;28;20037;-52
2023/01/26 04:26:43;;;;;;;19.88;5.85;;;3.10;99.90;;;;;;5052671;28;20053;-54
2023/01/26 04:29:14;;;;;;;14.50;5.03;;;3.10;99.90;;;;;;5053085;28;20049;-53
2023/01/26 04:31:42;;;;;;;15.07;5.28;;;3.10;99.90;;;;;;5053990;28;20413;-54
2023/01/26 04:34:09;;;;;;;18.95;5.43;;;3.10;99.90;;;;;;5052514;28;20401;-50
2023/01/26 04:36:36;;;;;;;20.15;5.75;;;3.00;99.90;;;;;;5052349;28;20072;-50
2023/01/26 04:39:04;;;;;;;14.05;5.38;;;3.00;99.90;;;;;;5052717;28;20492;-53
2023/01/26 04:41:31;;;;;;;16.42;5.13;;;3.00;99.90;;;;;;5052624;28;20423;-55
2023/01/26 04:44:03;;;;;;;19.35;4.45;;;3.00;99.90;;;;;;5052681;28;20128;-53
2023/01/26 04:46:32;;;;;;;18.13;5.72;;;3.00;99.90;;;;;;5052610;28;20135;-49
2023/01/26 04:49:00;;;;;;;15.20;5.38;;;3.00;99.90;;;;;;5052394;28;20139;-52
2023/01/26 04:51:27;;;;;;;17.95;4.88;;;3.00;99.90;;;;;;5052395;28;20074;-48
2023/01/26 04:53:55;;;;;;;13.73;5.05;;;3.00;99.90;;;;;;5052390;28;20491;-52
2023/01/26 04:56:22;;;;;;;15.85;5.15;;;3.00;99.90;;;;;;5052223;28;20037;-48
2023/01/26 04:58:50;;;;;;;14.10;5.20;;;3.00;99.90;;;;;;5052022;28;20098;-48
2023/01/26 05:01:17;;;;;;;21.85;5.03;;;3.00;99.90;;;;;;5052532;28;20041;-54
2023/01/26 05:03:44;;;;;;;22.27;4.82;;;3.10;99.90;;;;;;5053478;28;20037;-47
2023/01/26 05:06:11;;;;;;;21.40;4.57;;;3.10;99.90;;;;;;5052350;28;20041;-47
2023/01/26 05:08:39;;;;;;;15.98;4.57;;;3.10;99.90;;;;;;5052366;28;20087;-49
2023/01/26 05:11:07;;;;;;;15.25;4.28;;;3.10;99.90;;;;;;5052051;28;20095;-50
2023/01/26 05:13:53;;;;;;;17.67;4.25;;;3.10;99.90;;;;;;5054251;28;20557;-52
2023/01/26 05:16:55;;;;;;;10.85;3.72;;;3.20;99.90;;;;;;5045029;28;20033;-54
2023/01/26 05:19:38;;;;;;;16.73;5.15;;;3.20;99.90;;;;;;5052310;28;20049;-53
2023/01/26 05:22:11;;;;;;;14.57;4.25;;;3.20;99.90;;;;;;5053518;28;20056;-49
2023/01/26 05:24:44;;;;;;;11.55;3.70;;;3.20;99.90;;;;;;5052235;28;20145;-51
2023/01/26 05:27:30;;;;;;;;;;;3.20;99.90;;;;;;5052178;28;20049;-53
2023/01/26 05:30:01;;;;;;;21.83;3.67;;;3.20;99.90;;;;;;5052178;28;19921;-54
2023/01/26 05:32:32;;;;;;;15.65;3.83;;;3.30;99.90;;;;;;5051891;28;20133;-54
2023/01/26 05:34:59;;;;;;;13.30;3.53;;;3.30;99.90;;;;;;5052255;28;20049;-51
2023/01/26 05:37:27;;;;;;;15.45;4.25;;;3.40;99.90;;;;;;5052852;28;20087;-52
2023/01/26 05:39:54;;;;;;;18.60;4.15;;;3.40;99.90;;;;;;5051903;28;20072;-53
2023/01/26 05:42:21;;;;;;;12.90;3.53;;;3.50;99.90;;;;;;5053250;28;20056;-48
2023/01/26 05:44:57;;;;;;;15.23;3.60;;;3.50;99.90;;;;;;5053462;28;20047;-53
2023/01/26 05:47:24;;;;;;;16.58;3.95;;;3.60;99.90;;;;;;5051626;28;20114;-55
2023/01/26 05:49:50;;;;;;;9.32;3.35;;;3.70;99.90;;;;;;5051913;28;20056;-51
2023/01/26 05:52:22;;;;;;;10.45;3.40;;;3.70;99.90;;;;;;5051908;28;20357;-51
2023/01/26 05:54:50;;;;;;;15.70;3.30;;;3.70;99.90;;;;;;5051992;28;20056;-54
2023/01/26 05:57:17;;;;;;;16.38;3.80;;;3.80;99.90;;;;;;5055387;28;20444;-53
2023/01/26 05:59:50;;;;;;;14.55;3.92;;;3.80;99.90;;;;;;5055478;28;20048;-52
2023/01/26 06:02:17;;;;;;;23.45;4.00;;;3.90;99.90;;;;;;5055457;28;20136;-54
2023/01/26 06:04:44;;;;;;;17.60;3.70;;;3.90;99.90;;;;;;5056650;28;20384;-55
2023/01/26 06:07:12;;;;;;;16.42;3.30;;;3.90;99.90;;;;;;5056558;28;20045;-51
2023/01/26 06:10:05;;;;;;;13.35;3.35;;;3.90;99.90;;;;;;5053328;28;20389;-54
2023/01/26 06:12:47;;;;;;;17.35;4.28;;;4.00;99.90;;;;;;5054998;28;20052;-56
2023/01/26 06:15:19;;;;;;;20.80;3.90;;;4.00;99.90;;;;;;5054744;28;20056;-50
2023/01/26 06:17:47;;;;;;;17.80;3.60;;;4.10;99.90;;;;;;5054508;28;20095;-54
2023/01/26 06:20:16;;;;;;;17.83;3.63;;;4.10;99.90;;;;;;5055495;28;20095;-52
2023/01/26 06:22:52;;;;;;;17.77;3.10;;;4.10;99.90;;;;;;5054924;28;20496;-53
2023/01/26 06:25:19;;;;;;;16.80;4.20;;;4.10;99.90;;;;;;5056183;28;20370;-53
2023/01/26 06:27:46;;;;;;;17.15;4.35;;;4.10;99.90;;;;;;5054938;28;20056;-55
2023/01/26 06:30:21;;;;;;;13.90;3.55;;;4.10;99.90;;;;;;5054734;28;20456;-53
2023/01/26 06:32:48;;;;;;;13.63;3.70;;;4.20;99.90;;;;;;5054670;28;20504;-49
2023/01/26 06:35:16;;;;;;;16.55;4.10;;;4.20;99.90;;;;;;5054465;28;20049;-53
2023/01/26 06:37:44;;;;;;;21.98;4.63;;;4.20;99.90;;;;;;5054028;28;20041;-50
2023/01/26 06:40:11;;;;;;;19.73;3.75;;;4.20;99.90;;;;;;5055988;28;20106;-54
2023/01/26 06:42:38;;;;;;;17.88;4.93;;;4.20;99.90;;;;;;5054774;28;20051;-50
2023/01/26 06:45:05;;;;;;;18.65;3.85;;;4.30;99.90;;;;;;5054212;28;20504;-47
2023/01/26 06:47:32;;;;;;;14.15;3.22;;;4.30;99.90;;;;;;5054479;28;20132;-53
2023/01/26 06:50:01;;;;;;;11.88;3.45;;;4.30;99.90;;;;;;5054107;28;20045;-55
2023/01/26 06:52:29;;;;;;;17.60;4.07;;;4.30;99.90;;;;;;5054234;28;20526;-51
2023/01/26 06:55:04;;;;;;;17.87;4.30;;;4.30;99.90;;;;;;5054258;28;20076;-54
2023/01/26 06:58:00;;;;;;;14.00;3.33;;;4.30;99.90;;;;;;5055384;28;20300;-54
2023/01/26 07:00:56;;;;;;;21.20;4.43;;;4.30;99.90;;;;;;5036494;28;20058;-50
2023/01/26 07:03:27;;;;;;;17.15;3.40;;;4.30;99.90;;;;;;5055786;28;20040;-54
2023/01/26 07:05:54;;;;;;;19.67;4.35;;;4.40;99.90;;;;;;5055346;28;20043;-53
2023/01/26 07:08:21;;;;;;;15.15;4.22;;;4.40;99.90;;;;;;5054458;28;20049;-53
2023/01/26 07:10:47;;;;;;;19.23;3.70;;;4.40;99.90;;;;;;5055624;28;20451;-52
2023/01/26 07:13:14;;;;;;;15.75;4.13;;;4.40;99.90;;;;;;5054318;28;20045;-54
2023/01/26 07:15:41;;;;;;;16.67;4.07;;;4.40;99.90;;;;;;5054899;28;20068;-50
2023/01/26 07:18:08;;;;;;;18.55;4.45;;;4.40;99.90;;;;;;5055107;28;20033;-48
2023/01/26 07:20:35;;;;;;;13.10;4.40;;;4.40;99.90;;;;;;5054341;28;20033;-53
2023/01/26 07:23:01;;;;;;;11.85;3.40;;;4.40;99.90;;;;;;5055345;28;20037;-51
2023/01/26 07:25:28;;;;;;;14.05;3.60;;;4.40;99.90;;;;;;5055194;28;20543;-53
2023/01/26 07:27:55;;;;;;;13.20;3.88;;;4.40;99.90;;;;;;5054888;28;20095;-52
2023/01/26 07:30:22;;;;;;;13.27;3.70;;;4.40;99.90;;;;;;5054937;28;20044;-52
2023/01/26 07:32:49;;;;;;;14.82;4.20;;;4.40;99.90;;;;;;5054623;28;20045;-52
2023/01/26 07:35:15;;;;;;;13.57;3.78;;;4.40;99.90;;;;;;5053763;28;20048;-50
2023/01/26 07:37:42;;;;;;;18.17;4.53;;;4.40;99.90;;;;;;5054817;28;20037;-52
2023/01/26 07:40:09;;;;;;;18.75;4.28;;;4.50;99.90;;;;;;5055098;28;20051;-54
2023/01/26 07:42:36;;;;;;;17.17;4.15;;;4.50;99.90;;;;;;5054740;28;20033;-52
2023/01/26 07:45:18;;;;;;;16.52;4.15;;;4.50;99.90;;;;;;5054985;28;20444;-53
2023/01/26 07:47:45;;;;;;;18.08;4.13;;;4.50;99.90;;;;;;5054902;28;20045;-55
2023/01/26 07:50:12;;;;;;;14.77;3.88;;;4.50;99.90;;;;;;5055025;28;20049;-50
2023/01/26 07:52:39;;;;;;;12.43;3.85;;;4.50;99.90;;;;;;5054690;28;20045;-51
2023/01/26 07:55:06;;;;;;;15.73;4.20;;;4.50;99.90;;;;;;5054803;28;20102;-49
2023/01/26 07:57:33;;;;;;;15.52;4.00;;;4.50;99.90;;;;;;5054352;28;20052;-49
2023/01/26 07:59:59;;;;;;;15.23;3.92;;;4.50;99.90;;;;;;5054682;28;20055;-52
2023/01/26 08:02:26;;;;;;;13.35;3.60;;;4.50;99.90;;;;;;5054443;28;20110;-51
2023/01/26 08:04:53;;;;;;;15.90;4.70;;;4.50;99.90;;;;;;5054401;28;20064;-51
2023/01/26 08:07:20;;;;;;;14.07;3.80;;;4.50;99.90;;;;;;5053929;28;20041;-53
2023/01/26 08:09:47;;;;;;;16.17;3.75;;;4.50;99.90;;;;;;5054389;28;20550;-52
2023/01/26 08:12:14;;;;;;;13.82;4.03;;;4.50;99.90;;;;;;5054227;28;20099;-52
2023/01/26 08:14:41;;;;;;;15.60;4.30;;;4.50;99.90;;;;;;5054248;28;20049;-52
2023/01/26 08:17:14;;;;;;;13.00;3.55;;;4.60;99.90;;;;;;5054023;28;20534;-54
2023/01/26 08:19:41;;;;;;;19.10;4.30;;;4.60;99.90;;;;;;5053813;28;20045;-51
2023/01/26 08:22:07;;;;;;;18.20;4.05;;;4.60;99.90;;;;;;5054023;28;20048;-50
2023/01/26 08:24:34;;;;;;;11.50;4.03;;;4.60;99.90;;;;;;5053974;28;20128;-54
2023/01/26 08:27:01;;;;;;;16.02;3.92;;;4.70;99.90;;;;;;5053941;28;20044;-53
2023/01/26 08:29:27;;;;;;;14.60;3.83;;;4.60;99.90;;;;;;5053768;28;20103;-53
2023/01/26 08:31:54;;;;;;;15.48;4.15;;;4.70;99.90;;;;;;5053797;28;20043;-55
2023/01/26 08:34:21;;;;;;;10.95;3.25;;;4.70;99.90;;;;;;5052936;28;20599;-51
2023/01/26 08:36:48;;;;;;;14.15;3.65;;;4.70;99.90;;;;;;5053631;28;20045;-51
2023/01/26 08:39:15;;;;;;;15.57;3.22;;;4.60;99.90;;;;;;5053506;28;20047;-53
2023/01/26 08:41:41;;;;;;;16.55;3.63;;;4.70;99.90;;;;;;5053530;28;20530;-53
2023/01/26 08:44:08;;;;;;;11.88;3.80;;;4.70;99.90;;;;;;5054129;28;20042;-51
2023/01/26 08:46:35;;;;;;;24.55;4.35;;;4.80;99.90;;;;;;5053726;28;20037;-48
2023/01/26 08:49:01;;;;;;;13.63;3.83;;;4.70;99.90;;;;;;5053973;28;20053;-55
2023/01/26 08:51:28;;;;;;;9.90;3.53;;;4.70;99.90;;;;;;5053801;28;20045;-51
2023/01/26 08:53:55;;;;;;;16.92;4.47;;;4.70;99.90;;;;;;5054104;28;20369;-54
2023/01/26 08:56:22;;;;;;;16.75;4.85;;;4.70;99.90;;;;;;5051809;28;20051;-46
2023/01/26 08:58:48;;;;;;;23.83;5.47;;;4.80;99.90;;;;;;5049007;28;20488;-50
2023/01/26 09:01:15;;;;;;;14.23;5.28;;;4.80;99.90;;;;;;5058238;28;20373;-52
2023/01/26 09:03:43;;;;;;;14.88;4.80;;;4.80;99.90;;;;;;5058941;28;20388;-51
2023/01/26 09:06:10;;;;;;;16.23;4.88;;;4.80;99.90;;;;;;5052998;28;20080;-51
2023/01/26 09:08:36;;;;;;;14.25;5.00;;;4.80;99.90;;;;;;5053810;28;20045;-54
2023/01/26 09:11:03;;;;;;;14.82;4.90;;;4.90;99.90;;;;;;5054109;28;20041;-57
2023/01/26 09:13:30;;;;;;;20.80;5.00;;;4.90;99.90;;;;;;5049025;28;20048;-54
2023/01/26 09:15:57;;;;;;;15.38;4.68;;;4.90;99.90;;;;;;5053750;28;20459;-52
2023/01/26 09:18:23;;;;;;;15.57;5.00;;;4.90;99.90;;;;;;5051601;28;20045;-48
2023/01/26 09:20:50;;;;;;;18.10;5.43;;;5.00;99.90;;;;;;5053062;28;20037;-56
2023/01/26 09:23:17;;;;;;;16.13;4.65;;;5.00;99.90;;;;;;5053012;28;20132;-52
2023/01/26 09:25:44;;;;;;;14.77;4.88;;;5.00;99.90;;;;;;5053035;28;20052;-55
2023/01/26 09:28:11;;;;;;;16.23;5.10;;;5.00;99.90;;;;;;5052790;28;20073;-49
2023/01/26 09:30:38;;;;;;;14.20;4.50;;;5.00;99.90;;;;;;5054115;28;20048;-55
2023/01/26 09:33:05;;;;;;;10.63;4.60;;;5.10;99.90;;;;;;5056828;28;20095;-52
2023/01/26 09:35:32;;;;;;;13.23;4.35;;;5.00;99.90;;;;;;5056803;28;20079;-50
2023/01/26 09:37:59;;;;;;;13.98;5.05;;;5.10;99.90;;;;;;5056975;28;20041;-54
2023/01/26 09:40:25;;;;;;;12.85;5.10;;;5.10;99.90;;;;;;5057296;28;20060;-55
2023/01/26 09:42:52;;;;;;;16.88;5.30;;;5.00;99.90;;;;;;5057027;28;20069;-55
2023/01/26 09:45:19;;;;;;;13.40;4.97;;;5.10;99.90;;;;;;5057062;28;20439;-53
2023/01/26 09:47:46;;;;;;;14.05;5.60;;;5.10;99.90;;;;;;5056981;28;20040;-50
2023/01/26 09:50:12;;;;;;;19.67;6.00;;;5.10;99.90;;;;;;5056479;28;20052;-52
2023/01/26 09:52:39;;;;;;;12.25;5.70;;;5.10;99.90;;;;;;5056603;28;20475;-52
2023/01/26 09:55:07;;;;;;;14.02;6.35;;;5.10;99.90;;;;;;5056306;28;20045;-55
2023/01/26 09:57:33;;;;;;;16.33;6.07;;;5.10;99.90;;;;;;5056106;28;20041;-55
2023/01/26 10:00:00;;;;;;;16.77;5.75;;;5.20;99.90;;;;;;5055767;28;20041;-52
2023/01/26 10:02:27;;;;;;;16.45;6.05;;;5.20;99.90;;;;;;5055976;28;20037;-51
2023/01/26 10:04:54;;;;;;;14.95;6.18;;;5.20;99.90;;;;;;5071898;28;20058;-50
2023/01/26 10:07:20;;;;;;;15.23;6.30;;;5.20;99.90;;;;;;5075325;28;20044;-52
2023/01/26 10:09:50;;;;;;;12.43;6.68;;;5.20;99.90;;;;;;5075314;28;20722;-52
2023/01/26 10:12:17;;;;;;;20.30;7.20;;;5.20;99.90;;;;;;5075228;28;20040;-49
2023/01/26 10:14:44;;;;;;;14.85;7.68;;;5.20;99.90;;;;;;5075196;28;20075;-49
2023/01/26 10:17:11;;;;;;;18.92;7.20;;;5.20;99.90;;;;;;5075112;28;20033;-54
2023/01/26 10:19:37;;;;;;;20.48;7.45;;;5.30;99.90;;;;;;5075120;28;20471;-50
2023/01/26 10:22:04;;;;;;;22.15;7.35;;;5.30;99.90;;;;;;5075013;28;20094;-54
2023/01/26 10:24:31;;;;;;;18.27;7.50;;;5.30;99.90;;;;;;5074948;28;20040;-53
2023/01/26 10:26:57;;;;;;;26.35;7.75;;;5.40;99.90;;;;;;5074961;28;20036;-55
2023/01/26 10:29:24;;;;;;;16.15;7.32;;;5.40;99.90;;;;;;5072623;28;20102;-52
2023/01/26 10:31:51;;;;;;;17.35;7.88;;;5.40;99.90;;;;;;5055745;28;20044;-50
2023/01/26 10:34:18;;;;;;;14.52;7.47;;;5.40;99.90;;;;;;5055664;28;20570;-53
2023/01/26 10:36:45;;;;;;;16.13;7.68;;;5.50;99.90;;;;;;5055588;28;20056;-51
2023/01/26 10:39:11;;;;;;;19.38;7.57;;;5.50;99.90;;;;;;5055836;28;20041;-55
2023/01/26 10:41:41;;;;;;;24.35;8.15;;;5.60;99.90;;;;;;5055562;28;20099;-51
2023/01/26 10:44:07;;;;;;;21.05;7.95;;;5.60;99.90;;;;;;5055310;28;20049;-56
2023/01/26 10:46:34;;;;;;;18.75;7.70;;;5.60;99.90;;;;;;5055432;28;20091;-51
2023/01/26 10:49:01;;;;;;;20.40;7.72;;;5.60;99.90;;;;;;5055522;28;20041;-53
2023/01/26 10:51:28;;;;;;;16.13;7.35;;;5.60;99.90;;;;;;5055370;28;20064;-52
2023/01/26 10:53:55;;;;;;;21.25;7.78;;;5.70;99.90;;;;;;5055215;28;20041;-52
2023/01/26 10:56:22;;;;;;;17.42;7.75;;;5.70;99.90;;;;;;5055071;28;20068;-52
2023/01/26 10:58:48;;;;;;;17.27;8.02;;;5.70;99.90;;;;;;5055339;28;20041;-47
2023/01/26 11:01:17;;;;;;;20.10;7.47;;;5.70;99.90;;;;;;5063985;28;20453;-53
2023/01/26 11:03:44;;;;;;;22.33;7.72;;;5.80;99.90;;;;;;5074229;28;20028;-51
2023/01/26 11:06:11;;;;;;;18.90;7.22;;;5.70;99.90;;;;;;5074033;28;20041;-50
2023/01/26 11:08:38;;;;;;;20.05;7.82;;;5.80;99.90;;;;;;5074283;28;20036;-51
2023/01/26 11:11:09;;;;;;;20.67;8.10;;;5.70;99.90;;;;;;5074063;28;20040;-47
2023/01/26 11:13:36;;;;;;;19.58;7.63;;;5.80;99.90;;;;;;5074276;28;20043;-51
2023/01/26 11:16:02;;;;;;;17.70;7.53;;;5.80;99.90;;;;;;5073776;28;20052;-51
2023/01/26 11:18:29;;;;;;;14.80;7.70;;;5.80;99.90;;;;;;5073985;28;20487;-49
2023/01/26 11:20:56;;;;;;;19.13;7.82;;;5.80;99.90;;;;;;5073957;28;20086;-54
2023/01/26 11:23:23;;;;;;;16.85;6.80;;;5.80;99.90;;;;;;5074050;28;20068;-51
2023/01/26 11:25:50;;;;;;;17.08;7.10;;;5.80;99.90;;;;;;5073690;28;20095;-52
2023/01/26 11:28:16;;;;;;;19.05;6.47;;;5.80;99.90;;;;;;5074093;28;20052;-53
2023/01/26 11:30:43;;;;;;;16.25;6.07;;;5.80;99.90;;;;;;5058867;28;20435;-56
2023/01/26 11:33:10;;;;;;;16.85;6.07;;;5.90;99.90;;;;;;5054329;28;20140;-52
2023/01/26 11:35:37;;;;;;;18.48;5.72;;;5.90;99.90;;;;;;5054335;28;20048;-52
2023/01/26 11:38:03;;;;;;;14.88;6.90;;;5.90;99.90;;;;;;5054356;28;20049;-52
2023/01/26 11:40:30;;;;;;;15.63;5.15;;;5.90;99.90;;;;;;5053239;28;20126;-53
2023/01/26 11:42:57;;;;;;;16.35;5.65;;;6.00;99.90;;;;;;5052847;28;20048;-51
2023/01/26 11:45:24;;;;;;;19.10;5.15;;;6.00;99.90;;;;;;5054101;28;20052;-53
2023/01/26 11:47:50;;;;;;;20.85;5.40;;;6.00;99.90;;;;;;5054266;28;20041;-54
2023/01/26 11:50:17;;;;;;;24.05;5.07;;;6.00;99.90;;;;;;5054144;28;20037;-50
2023/01/26 11:52:44;;;;;;;15.13;4.78;;;6.10;99.90;;;;;;5053848;28;20045;-52
2023/01/26 11:55:11;;;;;;;17.80;4.93;;;6.10;99.90;;;;;;5053944;28;20053;-50
2023/01/26 11:57:38;;;;;;;17.02;4.35;;;6.10;99.90;;;;;;5053948;28;20075;-52
2023/01/26 12:00:05;;;;;;;16.27;4.20;;;6.20;99.90;;;;;;5052959;28;20486;-47
2023/01/26 12:02:38;;;;;;;14.95;4.07;;;6.20;99.90;;;;;;5053908;28;20045;-54
2023/01/26 12:05:07;;;;;;;17.30;5.03;;;6.30;99.90;;;;;;5063631;28;20037;-48
2023/01/26 12:07:51;;;;;;;13.48;3.83;;;6.30;99.90;;;;;;5072757;28;20082;-49
2023/01/26 12:10:18;;;;;;;15.82;5.55;;;6.30;99.90;;;;;;5073081;28;20048;-48
2023/01/26 12:12:45;;;;;;;16.27;4.00;;;6.40;99.90;;;;;;5073145;28;20572;-52
2023/01/26 12:15:12;;;;;;;17.70;4.05;;;6.40;99.90;;;;;;5072816;28;20056;-52
2023/01/26 12:17:38;;;;;;;14.10;4.72;;;6.40;99.90;;;;;;5072758;28;20036;-52
2023/01/26 12:20:05;;;;;;;16.58;4.47;;;6.40;99.90;;;;;;5060394;28;20041;-48
2023/01/26 12:22:32;;;;;;;15.13;3.85;;;6.30;99.90;;;;;;5053749;28;20056;-53
2023/01/26 12:24:59;;;;;;;18.65;4.57;;;6.30;99.90;;;;;;5064405;28;20037;-53
2023/01/26 12:27:45;;;;;;;19.37;3.93;;;6.40;99.90;;;;;;5053352;28;20037;-51
2023/01/26 12:30:11;;;;;;;19.33;4.80;;;6.40;99.90;;;;;;5053501;28;20041;-52
2023/01/26 12:32:38;;;;;;;16.55;4.43;;;6.40;99.90;;;;;;5053508;28;20052;-54
2023/01/26 12:35:05;;;;;;;12.23;3.83;;;6.50;99.90;;;;;;5053450;28;20063;-49
2023/01/26 12:37:32;;;;;;;12.60;3.58;;;6.60;99.90;;;;;;5053024;28;20094;-49
2023/01/26 12:39:58;;;;;;;19.63;4.80;;;6.60;99.90;;;;;;5053012;28;20068;-48
2023/01/26 12:42:25;;;;;;;15.63;4.10;;;6.70;99.90;;;;;;5046088;28;20055;-51
2023/01/26 12:44:52;;;;;;;16.88;3.83;;;6.70;99.90;;;;;;5072863;28;20040;-49
2023/01/26 12:47:19;;;;;;;16.88;3.38;;;6.80;99.90;;;;;;5071115;28;20041;-54
2023/01/26 12:49:45;;;;;;;18.70;3.88;;;6.80;99.90;;;;;;5060422;28;20099;-52
2023/01/26 12:52:12;;;;;;;14.25;3.30;;;6.90;99.90;;;;;;5053616;28;20045;-49
2023/01/26 12:54:39;;;;;;;15.77;3.42;;;6.90;99.90;;;;;;5053474;28;20048;-53
2023/01/26 12:57:06;;;;;;;17.90;3.50;;;6.90;99.90;;;;;;5053731;28;20053;-51
2023/01/26 12:59:32;;;;;;;19.08;3.38;;;7.00;99.90;;;;;;5052442;28;20052;-53
2023/01/26 13:02:13;;;;;;;12.93;3.03;;;7.00;99.90;;;;;;5053122;28;20557;-52
2023/01/26 13:04:40;;;;;;;17.35;3.42;;;7.10;99.90;;;;;;5052133;28;20073;-52
2023/01/26 13:07:07;;;;;;;15.10;3.28;;;7.10;99.90;;;;;;5055915;28;20045;-55
2023/01/26 13:09:34;;;;;;;20.02;3.90;;;7.10;99.90;;;;;;5057437;28;20559;-51
2023/01/26 13:12:01;;;;;;;16.77;3.85;;;7.20;99.90;;;;;;5057151;28;20127;-52
2023/01/26 13:14:28;;;;;;;12.32;3.35;;;7.20;99.90;;;;;;5076455;28;20063;-51
2023/01/26 13:16:54;;;;;;;15.23;3.65;;;7.20;99.90;;;;;;5075023;28;20056;-48
2023/01/26 13:19:21;;;;;;;16.90;3.50;;;7.30;99.90;;;;;;5056083;28;20048;-48
2023/01/26 13:21:48;;;;;;;16.10;3.47;;;7.30;99.90;;;;;;5050654;28;20064;-55
2023/01/26 13:24:15;;;;;;;16.90;3.53;;;7.40;99.90;;;;;;5064595;28;20044;-52
2023/01/26 13:26:41;;;;;;;21.67;4.25;;;7.40;99.90;;;;;;5050452;28;20041;-51
2023/01/26 13:29:08;;;;;;;14.98;3.60;;;7.40;99.90;;;;;;5071885;28;20045;-49
2023/01/26 13:31:35;;;;;;;15.10;3.45;;;7.50;99.90;;;;;;5075997;28;20040;-53
2023/01/26 13:34:02;;;;;;;18.25;3.53;;;7.40;99.90;;;;;;5073016;28;20040;-53
2023/01/26 13:36:28;;;;;;;17.67;3.28;;;7.40;99.90;;;;;;5056559;28;20048;-54
2023/01/26 13:38:55;;;;;;;20.88;4.13;;;7.40;99.90;;;;;;5056005;28;20048;-52